createdAt,value
2023-01-02T00:00:28.816Z,9.80
2023-01-02T00:02:55.622Z,10.15
2023-01-02T00:05:22.379Z,10.13
2023-01-02T00:07:49.253Z,9.45
2023-01-02T00:10:15.933Z,10.45
2023-01-02T00:12:42.593Z,9.85
2023-01-02T00:15:09.610Z,10.38
2023-01-02T00:17:36.281Z,10.32
2023-01-02T00:20:03.229Z,10.52
2023-01-02T00:22:30.494Z,10.95
2023-01-02T00:24:57.314Z,10.57
2023-01-02T00:27:23.987Z,10.52
2023-01-02T00:29:50.843Z,10.88
2023-01-02T00:32:17.485Z,11.38
2023-01-02T00:34:44.104Z,12.15
2023-01-02T00:37:10.736Z,11.45
2023-01-02T00:39:37.421Z,10.90
2023-01-02T00:42:04.535Z,10.48
2023-01-02T00:44:31.221Z,11.20
2023-01-02T00:46:57.923Z,10.77
2023-01-02T00:49:24.701Z,11.73
2023-01-02T00:51:51.510Z,11.45
2023-01-02T00:54:18.164Z,10.52
2023-01-02T00:56:44.780Z,10.90
2023-01-02T00:59:11.488Z,11.45
2023-01-02T01:01:38.276Z,11.75
2023-01-02T01:04:05.320Z,11.80
2023-01-02T01:06:33.915Z,11.43
2023-01-02T01:09:00.595Z,11.55
2023-01-02T01:11:30.035Z,12.05
2023-01-02T01:13:57.395Z,11.48
2023-01-02T01:16:25.546Z,11.63
2023-01-02T01:18:56.468Z,12.07
2023-01-02T01:21:23.554Z,12.25
2023-01-02T01:23:55.032Z,12.13
2023-01-02T01:26:23.097Z,11.48
2023-01-02T01:28:53.253Z,10.52
2023-01-02T01:31:20.808Z,13.20
2023-01-02T01:33:47.825Z,12.15
2023-01-02T01:36:17.657Z,12.15
2023-01-02T01:38:44.800Z,11.35
2023-01-02T01:41:18.359Z,11.82
2023-01-02T01:43:50.145Z,13.05
2023-01-02T01:46:47.034Z,12.77
2023-01-02T01:49:26.474Z,12.93
2023-01-02T01:51:58.776Z,14.30
2023-01-02T01:54:36.087Z,15.00
2023-01-02T01:57:10.356Z,13.05
2023-01-02T01:59:37.103Z,13.27
2023-01-02T02:02:03.946Z,13.50
2023-01-02T02:04:30.927Z,13.30
2023-01-02T02:06:57.604Z,13.23
2023-01-02T02:09:28.026Z,14.07
2023-01-02T02:11:55.511Z,13.52
2023-01-02T02:14:22.303Z,14.95
2023-01-02T02:17:23.139Z,13.13
2023-01-02T02:20:18.471Z,15.15
2023-01-02T02:23:15.938Z,14.85
2023-01-02T02:26:01.731Z,14.27
2023-01-02T02:28:50.389Z,15.20
2023-01-02T02:31:32.567Z,14.65
2023-01-02T02:34:02.953Z,14.63
2023-01-02T02:36:43.435Z,15.70
2023-01-02T02:39:34.397Z,14.73
2023-01-02T02:42:31.574Z,15.63
2023-01-02T02:45:15.366Z,15.57
2023-01-02T02:48:05.306Z,15.85
2023-01-02T02:50:42.895Z,17.30
2023-01-02T02:53:18.424Z,14.80
2023-01-02T02:55:50.378Z,15.30
2023-01-02T02:58:19.450Z,14.73
2023-01-02T03:00:46.223Z,16.50
2023-01-02T03:03:22.243Z,16.10
2023-01-02T03:06:15.380Z,15.15
2023-01-02T03:09:17.776Z,15.52
2023-01-02T03:12:18.932Z,15.27
2023-01-02T03:15:03.877Z,16.60
2023-01-02T03:17:56.198Z,14.13
2023-01-02T03:20:28.587Z,14.52
2023-01-02T03:23:01.229Z,14.90
2023-01-02T03:25:28.626Z,16.30
2023-01-02T03:27:58.859Z,15.27
2023-01-02T03:30:25.852Z,14.63
2023-01-02T03:33:08.146Z,15.50
2023-01-02T03:35:49.714Z,14.38
2023-01-02T03:38:24.677Z,15.45
2023-01-02T03:43:29.426Z,15.40
2023-01-02T03:46:17.171Z,15.55
2023-01-02T03:48:51.150Z,14.75
2023-01-02T03:51:18.046Z,16.65
2023-01-02T03:53:45.571Z,15.32
2023-01-02T03:56:22.256Z,14.95
2023-01-02T03:59:06.352Z,15.30
2023-01-02T04:01:39.874Z,15.45
2023-01-02T04:04:18.697Z,16.33
2023-01-02T04:06:50.832Z,15.40
2023-01-02T04:09:21.967Z,15.52
2023-01-02T04:11:55.784Z,15.15
2023-01-02T04:14:31.866Z,16.38
2023-01-02T04:17:01.024Z,15.20
2023-01-02T04:19:35.259Z,14.45
2023-01-02T04:22:08.009Z,15.50
2023-01-02T04:24:40.061Z,15.82
2023-01-02T04:27:14.022Z,14.70
2023-01-02T04:29:41.124Z,15.70
2023-01-02T04:32:15.678Z,15.82
2023-01-02T04:34:43.696Z,15.02
2023-01-02T04:37:10.473Z,15.57
2023-01-02T04:39:37.644Z,15.18
2023-01-02T04:42:04.388Z,15.48
2023-01-02T04:44:31.040Z,15.30
2023-01-02T04:46:57.683Z,15.90
2023-01-02T04:49:26.912Z,14.68
2023-01-02T04:51:53.583Z,14.95
2023-01-02T04:54:20.473Z,15.05
2023-01-02T04:56:47.096Z,15.23
2023-01-02T04:59:13.741Z,15.43
2023-01-02T05:01:40.873Z,14.82
2023-01-02T05:04:07.558Z,15.20
2023-01-02T05:06:34.234Z,16.23
2023-01-02T05:09:01.154Z,15.65
2023-01-02T05:11:27.769Z,14.82
2023-01-02T05:13:54.394Z,16.15
2023-01-02T05:16:21.031Z,16.08
2023-01-02T05:18:47.678Z,15.25
2023-01-02T05:21:33.270Z,15.30
2023-01-02T05:24:03.186Z,16.48
2023-01-02T05:26:33.225Z,16.10
2023-01-02T05:29:00.745Z,15.80
2023-01-02T05:31:28.107Z,16.15
2023-01-02T05:33:56.635Z,15.32
2023-01-02T05:36:24.623Z,15.93
2023-01-02T05:38:52.495Z,15.65
2023-01-02T05:41:20.527Z,16.45
2023-01-02T05:43:47.207Z,15.80
2023-01-02T05:46:18.846Z,14.38
2023-01-02T05:48:46.160Z,14.85
2023-01-02T05:51:15.818Z,14.55
2023-01-02T05:53:42.935Z,13.75
2023-01-02T05:56:14.787Z,13.43
2023-01-02T05:58:43.963Z,14.88
2023-01-02T06:01:14.211Z,13.45
2023-01-02T06:03:45.556Z,13.18
2023-01-02T06:06:12.507Z,13.07
2023-01-02T06:08:40.476Z,12.77
2023-01-02T06:11:07.776Z,12.77
2023-01-02T06:13:36.369Z,13.10
2023-01-02T06:16:04.693Z,13.40
2023-01-02T06:18:32.901Z,13.20
2023-01-02T06:21:04.378Z,12.63
2023-01-02T06:23:31.367Z,14.27
2023-01-02T06:26:06.879Z,12.15
2023-01-02T06:28:33.699Z,11.57
2023-01-02T06:31:04.484Z,11.98
2023-01-02T06:33:31.996Z,10.38
2023-01-02T06:36:07.797Z,11.48
2023-01-02T06:38:34.718Z,10.90
2023-01-02T06:41:02.651Z,12.05
2023-01-02T06:43:30.145Z,13.30
2023-01-02T06:46:02.017Z,13.65
2023-01-02T06:48:29.023Z,12.93
2023-01-02T06:50:55.732Z,13.85
2023-01-02T06:53:22.383Z,13.40
2023-01-02T06:55:57.131Z,14.32
2023-01-02T06:58:24.568Z,12.48
2023-01-02T07:00:51.767Z,13.27
2023-01-02T07:03:18.932Z,12.95
2023-01-02T07:05:45.677Z,14.23
2023-01-02T07:08:13.372Z,13.13
2023-01-02T07:10:40.080Z,14.15
2023-01-02T07:13:06.706Z,15.48
2023-01-02T07:15:33.587Z,16.30
2023-01-02T07:18:00.292Z,14.48
2023-01-02T07:20:27.226Z,14.98
2023-01-02T07:22:54.557Z,13.63
2023-01-02T07:25:22.349Z,13.75
2023-01-02T07:27:48.999Z,12.80
2023-01-02T07:30:16.170Z,12.15
2023-01-02T07:32:43.328Z,11.85
2023-01-02T07:35:11.381Z,12.88
2023-01-02T07:37:38.148Z,14.95
2023-01-02T07:40:05.823Z,13.90
2023-01-02T07:42:32.547Z,14.02
2023-01-02T07:44:59.227Z,14.55
2023-01-02T07:47:25.891Z,13.25
2023-01-02T07:49:52.568Z,13.75
2023-01-02T07:52:19.239Z,12.65
2023-01-02T07:54:45.962Z,13.75
2023-01-02T07:57:12.594Z,15.48
2023-01-02T07:59:39.761Z,16.08
2023-01-02T08:02:06.739Z,15.43
2023-01-02T08:04:33.747Z,15.25
2023-01-02T08:07:05.318Z,16.02
2023-01-02T08:09:33.641Z,22.48
2023-01-02T08:12:00.339Z,22.58
2023-01-02T08:14:27.402Z,22.77
2023-01-02T08:16:54.177Z,23.40
2023-01-02T08:19:20.928Z,23.70
2023-01-02T08:21:47.576Z,23.42
2023-01-02T08:24:14.253Z,23.02
2023-01-02T08:26:40.857Z,23.35
2023-01-02T08:29:09.033Z,23.63
2023-01-02T08:31:41.808Z,22.80
2023-01-02T08:34:14.377Z,23.55
2023-01-02T08:36:41.970Z,22.88
2023-01-02T08:39:08.559Z,21.98
2023-01-02T08:41:40.148Z,21.83
2023-01-02T08:44:07.441Z,21.90
2023-01-02T08:46:41.951Z,22.02
2023-01-02T08:49:09.935Z,21.67
2023-01-02T08:51:36.613Z,23.42
2023-01-02T08:54:03.339Z,22.77
2023-01-02T08:56:32.609Z,22.85
2023-01-02T08:59:05.493Z,22.98
2023-01-02T09:01:33.661Z,21.73
2023-01-02T09:04:06.264Z,21.83
2023-01-02T09:06:38.168Z,21.70
2023-01-02T09:09:11.123Z,22.10
2023-01-02T09:11:51.236Z,21.83
2023-01-02T09:14:20.008Z,21.83
2023-01-02T09:16:47.462Z,21.75
2023-01-02T09:19:14.514Z,21.13
2023-01-02T09:21:41.670Z,21.67
2023-01-02T09:24:09.337Z,22.75
2023-01-02T09:26:37.959Z,22.38
2023-01-02T09:29:05.302Z,22.10
2023-01-02T09:31:32.607Z,22.17
2023-01-02T09:33:59.370Z,21.15
2023-01-02T09:36:26.532Z,21.38
2023-01-02T09:38:55.064Z,21.73
2023-01-02T09:41:21.675Z,22.20
2023-01-02T09:43:53.555Z,20.35
2023-01-02T09:46:39.886Z,22.75
2023-01-02T09:49:09.645Z,22.08
2023-01-02T09:51:36.901Z,22.02
2023-01-02T09:54:06.228Z,21.90
2023-01-02T09:56:44.276Z,17.45
2023-01-02T09:59:40.773Z,15.70
2023-01-02T10:02:07.397Z,16.17
2023-01-02T10:04:55.452Z,16.67
2023-01-02T10:07:49.639Z,13.38
2023-01-02T10:10:35.347Z,12.05
2023-01-02T10:13:20.269Z,9.60
2023-01-02T10:15:50.195Z,8.10
2023-01-02T10:18:16.844Z,8.00
2023-01-02T10:20:48.667Z,7.30
2023-01-02T10:23:22.553Z,7.25
2023-01-02T10:25:55.376Z,6.80
2023-01-02T10:28:36.652Z,7.03
2023-01-02T10:31:17.024Z,6.88
2023-01-02T10:33:59.273Z,8.30
2023-01-02T10:36:35.856Z,8.00
2023-01-02T10:39:05.579Z,6.93
2023-01-02T10:41:36.224Z,6.97
2023-01-02T10:44:08.404Z,6.07
2023-01-02T10:46:37.223Z,6.18
2023-01-02T10:49:06.921Z,6.05
2023-01-02T10:51:35.654Z,5.60
2023-01-02T10:54:05.674Z,5.63
2023-01-02T10:56:34.807Z,6.07
2023-01-02T10:59:02.079Z,6.10
2023-01-02T11:01:29.505Z,5.65
2023-01-02T11:03:57.508Z,4.90
2023-01-02T11:06:39.512Z,7.10
2023-01-02T11:09:20.070Z,4.72
2023-01-02T11:11:55.235Z,5.38
2023-01-02T11:14:24.542Z,5.43
2023-01-02T11:16:51.626Z,3.70
2023-01-02T11:19:27.434Z,3.40
2023-01-02T11:21:56.351Z,3.47
2023-01-02T11:24:26.941Z,3.38
2023-01-02T11:26:54.558Z,2.80
2023-01-02T11:29:36.907Z,3.03
2023-01-02T11:32:04.381Z,3.03
2023-01-02T11:34:40.082Z,3.17
2023-01-02T11:37:16.161Z,4.30
2023-01-02T11:39:56.312Z,4.28
2023-01-02T11:43:00.978Z,4.47
2023-01-02T11:45:29.395Z,4.47
2023-01-02T11:48:10.017Z,5.25
2023-01-02T11:50:38.348Z,4.20
2023-01-02T11:53:19.787Z,5.10
2023-01-02T11:55:53.040Z,5.35
2023-01-02T11:58:50.695Z,5.50
2023-01-02T12:01:41.707Z,5.78
2023-01-02T12:04:08.698Z,6.50
2023-01-02T12:06:49.392Z,6.90
2023-01-02T12:09:38.463Z,8.52
2023-01-02T12:12:20.329Z,7.82
2023-01-02T12:15:04.292Z,8.80
2023-01-02T12:17:51.322Z,9.48
2023-01-02T12:20:22.824Z,8.68
2023-01-02T12:23:28.708Z,9.63
2023-01-02T12:26:11.037Z,9.25
2023-01-02T12:28:43.638Z,10.68
2023-01-02T12:31:22.535Z,10.95
2023-01-02T12:34:11.923Z,11.02
2023-01-02T12:37:07.651Z,15.77
2023-01-02T12:42:22.101Z,8.55
2023-01-02T12:45:00.046Z,9.10
2023-01-02T12:47:38.717Z,8.90
2023-01-02T12:50:11.547Z,7.43
2023-01-02T12:52:56.060Z,7.55
2023-01-02T12:55:35.487Z,7.73
2023-01-02T12:58:20.319Z,9.20
2023-01-02T13:01:02.052Z,9.23
2023-01-02T13:03:54.996Z,9.50
2023-01-02T13:06:55.676Z,9.75
2023-01-02T13:09:41.613Z,9.60
2023-01-02T13:12:24.704Z,9.68
2023-01-02T13:15:08.048Z,9.85
2023-01-02T13:17:49.730Z,10.13
2023-01-02T13:20:37.570Z,10.70
2023-01-02T13:23:22.760Z,10.95
2023-01-02T13:25:59.607Z,11.95
2023-01-02T13:28:26.341Z,10.80
2023-01-02T13:31:26.558Z,12.90
2023-01-02T13:36:36.930Z,13.00
2023-01-02T13:39:15.355Z,12.20
2023-01-02T13:42:13.620Z,12.27
2023-01-02T13:44:47.667Z,13.07
2023-01-02T13:47:34.303Z,13.00
2023-01-02T13:50:31.352Z,14.73
2023-01-02T13:53:10.463Z,14.57
2023-01-02T13:55:39.838Z,13.95
2023-01-02T13:58:17.377Z,13.93
2023-01-02T14:00:54.316Z,12.02
2023-01-02T14:03:21.925Z,14.50
2023-01-02T14:05:59.437Z,15.13
2023-01-02T14:08:29.134Z,14.90
2023-01-02T14:11:16.890Z,19.80
2023-01-02T14:13:48.804Z,16.55
2023-01-02T14:16:57.626Z,18.70
2023-01-02T14:19:25.785Z,16.35
2023-01-02T14:21:58.426Z,14.60
2023-01-02T14:24:38.755Z,16.10
2023-01-02T14:27:23.462Z,17.27
2023-01-02T14:30:12.546Z,17.73
2023-01-02T14:32:43.360Z,17.02
2023-01-02T14:35:12.986Z,15.27
2023-01-02T14:37:44.454Z,16.23
2023-01-02T14:40:35.147Z,17.52
2023-01-02T14:43:27.945Z,20.35
2023-01-02T14:46:19.285Z,19.35
2023-01-02T14:49:26.207Z,18.63
2023-01-02T14:52:05.119Z,17.73
2023-01-02T14:54:50.790Z,17.17
2023-01-02T14:57:36.822Z,18.83
2023-01-02T15:00:16.737Z,19.00
2023-01-02T15:02:47.603Z,18.35
2023-01-02T15:05:26.604Z,19.30
2023-01-02T15:07:57.180Z,19.60
2023-01-02T15:10:23.970Z,20.25
2023-01-02T15:13:03.809Z,20.63
2023-01-02T15:15:47.307Z,26.52
2023-01-02T15:18:29.320Z,25.90
2023-01-02T15:21:08.444Z,28.23
2023-01-02T15:23:37.370Z,28.70
2023-01-02T15:26:31.798Z,28.38
2023-01-02T15:29:01.774Z,32.33
2023-01-02T15:31:28.888Z,31.25
2023-01-02T15:33:59.622Z,30.58
2023-01-02T15:36:39.644Z,31.67
2023-01-02T15:39:18.071Z,32.03
2023-01-02T15:41:54.503Z,31.33
2023-01-02T15:44:50.614Z,32.05
2023-01-02T15:47:22.537Z,32.53
2023-01-02T15:49:56.207Z,31.45
2023-01-02T15:52:28.530Z,32.67
2023-01-02T15:54:56.049Z,33.25
2023-01-02T15:57:28.998Z,37.70
2023-01-02T15:59:56.117Z,34.08
2023-01-02T16:02:32.059Z,36.65
2023-01-02T16:05:18.830Z,37.97
2023-01-02T16:07:54.275Z,36.55
2023-01-02T16:10:26.966Z,33.50
2023-01-02T16:13:02.984Z,32.67
2023-01-02T16:15:34.764Z,36.13
2023-01-02T16:18:02.425Z,34.65
2023-01-02T16:20:29.560Z,34.95
2023-01-02T16:23:03.430Z,33.83
2023-01-02T16:25:33.575Z,34.15
2023-01-02T16:28:35.749Z,35.67
2023-01-02T16:31:19.007Z,31.80
2023-01-02T16:33:46.619Z,33.17
2023-01-02T16:36:16.111Z,36.60
2023-01-02T16:39:00.645Z,39.63
2023-01-02T16:41:37.302Z,41.60
2023-01-02T16:44:13.995Z,44.75
2023-01-02T16:46:45.608Z,46.58
2023-01-02T16:49:16.045Z,48.70
2023-01-02T16:51:47.938Z,44.88
2023-01-02T16:54:16.024Z,45.53
2023-01-02T16:56:43.254Z,40.80
2023-01-02T16:59:10.007Z,33.13
2023-01-02T17:01:37.080Z,29.25
2023-01-02T17:04:03.885Z,26.88
2023-01-02T17:09:22.905Z,24.38
2023-01-02T17:12:01.731Z,25.25
2023-01-02T17:14:30.687Z,23.85
2023-01-02T17:16:57.883Z,22.30
2023-01-02T17:19:25.743Z,23.70
2023-01-02T17:21:52.402Z,21.77
2023-01-02T17:24:19.400Z,23.65
2023-01-02T17:26:47.023Z,25.40
2023-01-02T17:29:13.907Z,21.67
2023-01-02T17:31:40.622Z,23.25
2023-01-02T17:34:07.374Z,24.88
2023-01-02T17:36:36.117Z,20.15
2023-01-02T17:39:02.896Z,23.33
2023-01-02T17:41:29.570Z,22.73
2023-01-02T17:44:01.940Z,22.52
2023-01-02T17:49:17.618Z,18.33
2023-01-02T17:51:44.270Z,15.63
2023-01-02T17:54:12.415Z,16.85
2023-01-02T17:56:39.185Z,13.77
2023-01-02T17:59:06.055Z,14.85
2023-01-02T18:01:33.018Z,16.55
2023-01-02T18:03:59.859Z,18.45
2023-01-02T18:06:26.512Z,18.13
2023-01-02T18:08:55.506Z,17.98
2023-01-02T18:11:22.710Z,20.00
2023-01-02T18:13:54.944Z,21.88
2023-01-02T18:16:24.453Z,21.73
2023-01-02T18:18:53.088Z,21.30
2023-01-02T18:21:22.628Z,21.38
2023-01-02T18:23:54.539Z,21.90
2023-01-02T18:26:21.569Z,21.77
2023-01-02T18:28:57.023Z,19.63
2023-01-02T18:31:24.942Z,21.80
2023-01-02T18:33:56.654Z,22.67
2023-01-02T18:36:24.584Z,20.15
2023-01-02T18:39:02.109Z,20.02
2023-01-02T18:41:31.767Z,20.02
2023-01-02T18:44:15.161Z,19.98
2023-01-02T18:47:03.175Z,21.05
2023-01-02T18:49:37.474Z,16.60
2023-01-02T18:52:29.781Z,17.50
2023-01-02T18:55:00.882Z,18.80
2023-01-02T18:57:33.121Z,19.63
2023-01-02T19:00:22.207Z,21.98
2023-01-02T19:02:59.634Z,20.70
2023-01-02T19:05:28.900Z,22.63
2023-01-02T19:08:07.918Z,24.55
2023-01-02T19:10:43.528Z,22.63
2023-01-02T19:13:22.451Z,26.15
2023-01-02T19:15:58.690Z,25.85
2023-01-02T19:18:39.550Z,25.67
2023-01-02T19:21:08.931Z,23.00
2023-01-02T19:23:48.574Z,22.27
2023-01-02T19:26:41.644Z,22.65
2023-01-02T19:29:11.441Z,20.50
2023-01-02T19:31:48.542Z,22.30
2023-01-02T19:34:44.076Z,22.42
2023-01-02T19:37:10.663Z,17.50
2023-01-02T19:39:57.114Z,17.85
2023-01-02T19:42:27.301Z,16.80
2023-01-02T19:44:56.300Z,21.52
2023-01-02T19:47:26.002Z,17.63
2023-01-02T19:49:56.818Z,17.40
2023-01-02T19:52:24.825Z,14.77
2023-01-02T19:54:52.390Z,16.48
2023-01-02T19:57:20.464Z,17.75
2023-01-02T19:59:49.167Z,16.75
2023-01-02T20:02:19.303Z,14.52
2023-01-02T20:04:47.883Z,16.50
2023-01-02T20:07:14.557Z,17.75
2023-01-02T20:09:41.227Z,16.65
2023-01-02T20:12:27.315Z,16.50
2023-01-02T20:14:53.963Z,14.98
2023-01-02T20:17:20.713Z,14.45
2023-01-02T20:19:47.451Z,12.98
2023-01-02T20:22:14.194Z,13.55
2023-01-02T20:24:41.107Z,11.48
2023-01-02T20:27:08.732Z,11.10
2023-01-02T20:29:36.203Z,10.18
2023-01-02T20:32:03.260Z,9.85
2023-01-02T20:34:30.123Z,8.90
2023-01-02T20:36:57.910Z,9.10
2023-01-02T20:39:25.032Z,9.73
2023-01-02T20:41:51.829Z,8.65
2023-01-02T20:44:18.612Z,8.95
2023-01-02T20:46:45.335Z,7.20
2023-01-02T20:49:12.113Z,8.32
2023-01-02T20:51:39.431Z,9.98
2023-01-02T20:54:06.849Z,12.57
2023-01-02T20:56:34.508Z,13.75
2023-01-02T20:59:02.900Z,15.18
2023-01-02T21:01:29.817Z,16.17
2023-01-02T21:03:56.794Z,15.60
2023-01-02T21:06:23.571Z,17.45
2023-01-02T21:08:50.217Z,16.10
2023-01-02T21:11:16.869Z,15.88
2023-01-02T21:13:43.514Z,15.43
2023-01-02T21:16:10.189Z,15.07
2023-01-02T21:18:39.072Z,14.35
2023-01-02T21:21:11.448Z,13.88
2023-01-02T21:23:40.060Z,12.23
2023-01-02T21:26:08.891Z,12.10
2023-01-02T21:28:36.573Z,12.32
2023-01-02T21:31:03.427Z,13.45
2023-01-02T21:33:30.561Z,12.48
2023-01-02T21:36:01.428Z,12.90
2023-01-02T21:38:28.873Z,13.40
2023-01-02T21:41:16.871Z,15.43
2023-01-02T21:43:43.511Z,15.10
2023-01-02T21:46:10.181Z,16.20
2023-01-02T21:48:38.032Z,17.25
2023-01-02T21:51:06.236Z,17.15
2023-01-02T21:53:33.199Z,16.85
2023-01-02T21:55:59.988Z,18.23
2023-01-02T21:58:26.760Z,18.92
2023-01-02T22:00:53.430Z,18.38
2023-01-02T22:03:20.206Z,19.25
2023-01-02T22:05:46.939Z,20.02
2023-01-02T22:08:13.960Z,19.30
2023-01-02T22:10:40.570Z,18.50
2023-01-02T22:13:07.316Z,16.95
2023-01-02T22:15:33.925Z,19.67
2023-01-02T22:18:00.599Z,17.85
2023-01-02T22:20:27.335Z,19.38
2023-01-02T22:22:53.985Z,17.23
2023-01-02T22:25:20.644Z,18.30
2023-01-02T22:27:47.248Z,20.33
2023-01-02T22:30:31.101Z,19.92
2023-01-02T22:32:59.969Z,21.17
2023-01-02T22:35:27.584Z,22.38
2023-01-02T22:37:54.269Z,22.50
2023-01-02T22:40:21.111Z,21.55
2023-01-02T22:43:03.399Z,24.40
2023-01-02T22:45:39.670Z,23.50
2023-01-02T22:50:43.361Z,24.75
2023-01-02T22:53:18.006Z,23.38
2023-01-02T22:55:44.590Z,25.33
2023-01-02T22:58:11.257Z,25.20
2023-01-02T23:00:37.963Z,25.10
2023-01-02T23:03:05.257Z,24.25
2023-01-02T23:05:32.425Z,26.50
2023-01-02T23:07:59.050Z,24.75
2023-01-02T23:10:25.662Z,30.00
2023-01-02T23:12:52.245Z,27.80
2023-01-02T23:15:19.355Z,26.52
2023-01-02T23:18:04.401Z,28.83
2023-01-02T23:20:31.521Z,27.33
2023-01-02T23:22:58.209Z,28.38
2023-01-02T23:25:24.892Z,28.13
2023-01-02T23:27:52.118Z,27.75
2023-01-02T23:30:19.067Z,30.45
2023-01-02T23:32:45.715Z,28.13
2023-01-02T23:35:12.441Z,28.13
2023-01-02T23:37:39.107Z,26.92
2023-01-02T23:40:06.383Z,31.27
2023-01-02T23:42:33.074Z,27.77
2023-01-02T23:44:59.975Z,28.33
2023-01-02T23:47:26.702Z,29.23
2023-01-02T23:49:53.591Z,28.48
2023-01-02T23:52:20.310Z,28.13
2023-01-02T23:54:46.991Z,28.60
2023-01-02T23:57:14.187Z,28.67
2023-01-02T23:59:40.817Z,30.58
